sensor_id;sensor_type;location;lat;lon;timestamp;pressure;altitude;pressure_sealevel;temperature;humidity
64753;BME280;61095;52.454;16.948;2022-08-11T02:02:21;101483.88;;;16.52;58.65
64753;BME280;61095;52.454;16.948;2022-08-11T02:07:55;101488.91;;;16.60;58.56
64753;BME280;61095;52.454;16.948;2022-08-11T02:12:58;101480.72;;;16.64;58.15
64753;BME280;61095;52.454;16.948;2022-08-11T02:18:05;101491.56;;;16.60;59.20
64753;BME280;61095;52.454;16.948;2022-08-11T02:23:20;101481.09;;;16.55;59.73
64753;BME280;61095;52.454;16.948;2022-08-11T02:28:50;101479.34;;;16.54;59.62
64753;BME280;61095;52.454;16.948;2022-08-11T02:33:57;101484.00;;;16.49;59.56
64753;BME280;61095;52.454;16.948;2022-08-11T02:39:03;101483.38;;;16.42;60.45
64753;BME280;61095;52.454;16.948;2022-08-11T02:44:15;101479.28;;;16.34;60.72
64753;BME280;61095;52.454;16.948;2022-08-11T02:49:37;101479.53;;;16.28;61.96
64753;BME280;61095;52.454;16.948;2022-08-11T02:55:09;101478.75;;;16.24;61.52
64753;BME280;61095;52.454;16.948;2022-08-11T03:00:12;101483.94;;;16.27;61.02
64753;BME280;61095;52.454;16.948;2022-08-11T03:05:22;101493.66;;;16.30;62.01
64753;BME280;61095;52.454;16.948;2022-08-11T03:10:24;101487.97;;;16.39;60.87
64753;BME280;61095;52.454;16.948;2022-08-11T03:15:28;101494.03;;;16.42;60.99
64753;BME280;61095;52.454;16.948;2022-08-11T03:21:06;101494.84;;;16.44;61.73
64753;BME280;61095;52.454;16.948;2022-08-11T03:26:14;101498.19;;;16.49;61.43
64753;BME280;61095;52.454;16.948;2022-08-11T03:31:25;101493.72;;;16.50;61.40
64753;BME280;61095;52.454;16.948;2022-08-11T03:36:58;101505.38;;;16.47;61.79
64753;BME280;61095;52.454;16.948;2022-08-11T03:42:07;101502.84;;;16.44;61.70
64753;BME280;61095;52.454;16.948;2022-08-11T03:47:41;101510.88;;;16.43;61.62
64753;BME280;61095;52.454;16.948;2022-08-11T03:52:52;101516.63;;;16.32;61.13
64753;BME280;61095;52.454;16.948;2022-08-11T03:58:30;101511.00;;;16.40;61.41
64753;BME280;61095;52.454;16.948;2022-08-11T04:03:56;101510.28;;;16.58;60.76
64753;BME280;61095;52.454;16.948;2022-08-11T04:09:32;101507.47;;;16.84;60.13
64753;BME280;61095;52.454;16.948;2022-08-11T04:14:59;101502.88;;;17.10;58.63
64753;BME280;61095;52.454;16.948;2022-08-11T04:20:34;101511.34;;;17.41;58.37
64753;BME280;61095;52.454;16.948;2022-08-11T04:26:03;101514.78;;;17.86;57.28
64753;BME280;61095;52.454;16.948;2022-08-11T04:31:10;101509.34;;;18.26;56.33
64753;BME280;61095;52.454;16.948;2022-08-11T04:36:36;101501.69;;;18.56;55.24
64753;BME280;61095;52.454;16.948;2022-08-11T04:42:19;101504.34;;;18.94;54.61
64753;BME280;61095;52.454;16.948;2022-08-11T04:48:09;101511.56;;;19.28;54.26
64753;BME280;61095;52.454;16.948;2022-08-11T04:53:44;101504.91;;;19.54;53.31
64753;BME280;61095;52.454;16.948;2022-08-11T04:59:47;101508.31;;;19.90;53.39
64753;BME280;61095;52.454;16.948;2022-08-11T05:05:18;101497.03;;;20.34;52.45
64753;BME280;61095;52.454;16.948;2022-08-11T05:10:44;101502.88;;;20.58;52.13
64753;BME280;61095;52.454;16.948;2022-08-11T05:15:50;101507.34;;;20.89;51.42
64753;BME280;61095;52.454;16.948;2022-08-11T05:21:09;101507.50;;;21.17;51.78
64753;BME280;61095;52.454;16.948;2022-08-11T05:26:28;101514.00;;;21.43;51.34
64753;BME280;61095;52.454;16.948;2022-08-11T05:31:58;101518.22;;;21.77;50.60
64753;BME280;61095;52.454;16.948;2022-08-11T05:37:18;101509.06;;;22.10;50.06
64753;BME280;61095;52.454;16.948;2022-08-11T05:42:21;101512.97;;;22.33;49.65
64753;BME280;61095;52.454;16.948;2022-08-11T05:47:41;101502.13;;;22.63;48.77
64753;BME280;61095;52.454;16.948;2022-08-11T05:52:58;101513.72;;;23.04;48.60
64753;BME280;61095;52.454;16.948;2022-08-11T05:58:14;101507.28;;;23.47;47.84
64753;BME280;61095;52.454;16.948;2022-08-11T06:03:24;101510.13;;;23.70;46.83
64753;BME280;61095;52.454;16.948;2022-08-11T06:08:30;101506.91;;;23.91;46.15
64753;BME280;61095;52.454;16.948;2022-08-11T06:13:32;101516.50;;;24.20;46.39
64753;BME280;61095;52.454;16.948;2022-08-11T06:18:33;101512.28;;;24.42;45.76
64753;BME280;61095;52.454;16.948;2022-08-11T06:23:34;101510.03;;;24.85;45.53
64753;BME280;61095;52.454;16.948;2022-08-11T06:28:39;101503.84;;;25.07;44.54
64753;BME280;61095;52.454;16.948;2022-08-11T06:33:53;101519.78;;;25.57;43.57
64753;BME280;61095;52.454;16.948;2022-08-11T06:39:01;101526.41;;;25.53;42.83
64753;BME280;61095;52.454;16.948;2022-08-11T06:44:13;101513.09;;;25.85;42.48
64753;BME280;61095;52.454;16.948;2022-08-11T06:49:17;101500.97;;;25.91;42.48
64753;BME280;61095;52.454;16.948;2022-08-11T06:54:36;101504.66;;;26.12;42.38
64753;BME280;61095;52.454;16.948;2022-08-11T06:59:38;101503.94;;;26.55;41.41
64753;BME280;61095;52.454;16.948;2022-08-11T07:04:59;101499.47;;;26.65;40.61
64753;BME280;61095;52.454;16.948;2022-08-11T07:10:22;101499.84;;;26.61;40.25
64753;BME280;61095;52.454;16.948;2022-08-11T07:15:43;101497.88;;;26.74;40.52
64753;BME280;61095;52.454;16.948;2022-08-11T07:20:45;101493.84;;;26.68;40.35
64753;BME280;61095;52.454;16.948;2022-08-11T07:26:02;101490.75;;;26.73;40.33
64753;BME280;61095;52.454;16.948;2022-08-11T07:31:25;101493.59;;;26.71;39.33
64753;BME280;61095;52.454;16.948;2022-08-11T07:36:30;101495.22;;;26.95;39.79
64753;BME280;61095;52.454;16.948;2022-08-11T07:41:33;101496.59;;;26.89;39.14
64753;BME280;61095;52.454;16.948;2022-08-11T07:46:32;101485.88;;;26.88;38.49
64753;BME280;61095;52.454;16.948;2022-08-11T07:51:50;101489.53;;;26.98;37.96
64753;BME280;61095;52.454;16.948;2022-08-11T07:57:08;101488.50;;;27.21;38.06
64753;BME280;61095;52.454;16.948;2022-08-11T08:02:25;101478.19;;;27.36;36.61
64753;BME280;61095;52.454;16.948;2022-08-11T08:07:43;101477.88;;;27.29;37.26
64753;BME280;61095;52.454;16.948;2022-08-11T08:12:59;101475.75;;;27.33;37.42
64753;BME280;61095;52.454;16.948;2022-08-11T08:18:15;101472.78;;;27.36;37.33
64753;BME280;61095;52.454;16.948;2022-08-11T08:23:17;101477.28;;;27.47;36.84
64753;BME280;61095;52.454;16.948;2022-08-11T08:28:29;101462.91;;;27.56;35.89
64753;BME280;61095;52.454;16.948;2022-08-11T08:33:30;101463.19;;;27.53;35.37
64753;BME280;61095;52.454;16.948;2022-08-11T08:38:30;101469.50;;;26.89;34.11
64753;BME280;61095;52.454;16.948;2022-08-11T08:43:30;101463.06;;;26.58;33.83
64753;BME280;61095;52.454;16.948;2022-08-11T08:48:31;101469.75;;;26.32;33.40
64753;BME280;61095;52.454;16.948;2022-08-11T08:53:34;101472.94;;;26.03;33.71
64753;BME280;61095;52.454;16.948;2022-08-11T08:58:37;101455.59;;;26.17;33.93
64753;BME280;61095;52.454;16.948;2022-08-11T09:03:39;101451.44;;;26.02;33.99
64753;BME280;61095;52.454;16.948;2022-08-11T09:08:40;101452.22;;;25.69;34.10
64753;BME280;61095;52.454;16.948;2022-08-11T09:13:39;101462.53;;;25.64;33.84
64753;BME280;61095;52.454;16.948;2022-08-11T09:18:41;101463.56;;;25.74;33.94
64753;BME280;61095;52.454;16.948;2022-08-11T09:23:43;101456.94;;;25.78;33.84
64753;BME280;61095;52.454;16.948;2022-08-11T09:29:01;101452.75;;;25.74;33.38
64753;BME280;61095;52.454;16.948;2022-08-11T09:34:02;101456.94;;;25.78;33.83
64753;BME280;61095;52.454;16.948;2022-08-11T09:39:04;101457.59;;;25.93;32.83
64753;BME280;61095;52.454;16.948;2022-08-11T09:44:21;101448.84;;;26.11;33.19
64753;BME280;61095;52.454;16.948;2022-08-11T09:49:37;101452.16;;;26.15;33.29
64753;BME280;61095;52.454;16.948;2022-08-11T09:54:39;101436.78;;;26.15;32.31
64753;BME280;61095;52.454;16.948;2022-08-11T09:59:39;101428.78;;;26.36;32.93
64753;BME280;61095;52.454;16.948;2022-08-11T10:04:40;101424.06;;;26.49;33.88
64753;BME280;61095;52.454;16.948;2022-08-11T10:09:46;101423.22;;;26.38;33.98
64753;BME280;61095;52.454;16.948;2022-08-11T10:14:52;101418.69;;;26.38;34.40
64753;BME280;61095;52.454;16.948;2022-08-11T10:20:09;101414.03;;;26.29;34.68
64753;BME280;61095;52.454;16.948;2022-08-11T10:25:12;101410.06;;;26.33;33.75
64753;BME280;61095;52.454;16.948;2022-08-11T10:30:29;101406.28;;;26.13;33.29
64753;BME280;61095;52.454;16.948;2022-08-11T10:35:46;101395.59;;;26.12;33.07
64753;BME280;61095;52.454;16.948;2022-08-11T10:40:48;101388.69;;;26.19;32.54
64753;BME280;61095;52.454;16.948;2022-08-11T10:46:08;101377.50;;;26.24;32.71
64753;BME280;61095;52.454;16.948;2022-08-11T10:51:26;101384.16;;;26.08;32.03
64753;BME280;61095;52.454;16.948;2022-08-11T10:56:43;101374.97;;;26.00;32.42
64753;BME280;61095;52.454;16.948;2022-08-11T11:02:00;101370.19;;;25.92;32.70
64753;BME280;61095;52.454;16.948;2022-08-11T11:07:05;101365.00;;;25.89;32.01
64753;BME280;61095;52.454;16.948;2022-08-11T11:12:16;101359.22;;;25.94;31.84
64753;BME280;61095;52.454;16.948;2022-08-11T11:17:46;101353.31;;;26.00;32.27
64753;BME280;61095;52.454;16.948;2022-08-11T11:23:06;101348.53;;;25.81;32.49
64753;BME280;61095;52.454;16.948;2022-08-11T11:28:23;101343.97;;;25.81;32.16
64753;BME280;61095;52.454;16.948;2022-08-11T11:33:35;101343.59;;;25.86;32.16
64753;BME280;61095;52.454;16.948;2022-08-11T11:38:37;101344.00;;;25.93;31.62
64753;BME280;61095;52.454;16.948;2022-08-11T11:43:39;101354.94;;;25.91;31.13
64753;BME280;61095;52.454;16.948;2022-08-11T11:48:39;101335.00;;;26.03;31.79
64753;BME280;61095;52.454;16.948;2022-08-11T11:53:41;101340.50;;;26.13;31.63
64753;BME280;61095;52.454;16.948;2022-08-11T11:58:43;101336.72;;;26.04;31.07
64753;BME280;61095;52.454;16.948;2022-08-11T12:04:14;101335.72;;;26.05;31.04
64753;BME280;61095;52.454;16.948;2022-08-11T12:09:15;101336.09;;;26.01;31.17
64753;BME280;61095;52.454;16.948;2022-08-11T12:14:20;101321.72;;;25.89;31.17
64753;BME280;61095;52.454;16.948;2022-08-11T12:19:24;101312.41;;;25.93;31.10
64753;BME280;61095;52.454;16.948;2022-08-11T12:24:27;101325.41;;;25.99;30.62
64753;BME280;61095;52.454;16.948;2022-08-11T12:29:47;101308.44;;;25.97;30.02
64753;BME280;61095;52.454;16.948;2022-08-11T12:34:46;101295.50;;;26.12;30.36
64753;BME280;61095;52.454;16.948;2022-08-11T12:39:46;101285.75;;;26.20;31.48
64753;BME280;61095;52.454;16.948;2022-08-11T12:45:09;101267.91;;;26.29;31.56
64753;BME280;61095;52.454;16.948;2022-08-11T12:50:35;101273.84;;;26.23;31.54
64753;BME280;61095;52.454;16.948;2022-08-11T12:56:03;101272.38;;;26.08;30.92
64753;BME280;61095;52.454;16.948;2022-08-11T13:01:22;101271.56;;;25.96;31.14
64753;BME280;61095;52.454;16.948;2022-08-11T13:06:40;101263.59;;;25.95;31.25
64753;BME280;61095;52.454;16.948;2022-08-11T13:11:40;101269.94;;;26.05;31.47
64753;BME280;61095;52.454;16.948;2022-08-11T13:16:58;101250.66;;;25.98;31.33
64753;BME280;61095;52.454;16.948;2022-08-11T13:22:16;101250.16;;;26.04;31.31
64753;BME280;61095;52.454;16.948;2022-08-11T13:27:17;101243.09;;;26.13;30.82
64753;BME280;61095;52.454;16.948;2022-08-11T13:32:19;101232.41;;;26.11;30.37
64753;BME280;61095;52.454;16.948;2022-08-11T13:37:20;101219.75;;;26.12;29.88
64753;BME280;61095;52.454;16.948;2022-08-11T13:42:20;101232.59;;;25.99;30.14
64753;BME280;61095;52.454;16.948;2022-08-11T13:47:21;101225.53;;;26.07;30.06
64753;BME280;61095;52.454;16.948;2022-08-11T13:52:22;101213.47;;;26.11;30.41
64753;BME280;61095;52.454;16.948;2022-08-11T13:57:22;101203.13;;;26.16;30.26
64753;BME280;61095;52.454;16.948;2022-08-11T14:02:26;101186.25;;;26.24;29.52
64753;BME280;61095;52.454;16.948;2022-08-11T14:07:31;101180.72;;;26.26;29.99
64753;BME280;61095;52.454;16.948;2022-08-11T14:12:33;101189.81;;;26.25;30.51
64753;BME280;61095;52.454;16.948;2022-08-11T14:17:54;101187.72;;;26.28;30.06
64753;BME280;61095;52.454;16.948;2022-08-11T14:22:59;101191.88;;;26.32;30.42
64753;BME280;61095;52.454;16.948;2022-08-11T14:27:58;101187.78;;;26.38;30.39
64753;BME280;61095;52.454;16.948;2022-08-11T14:32:58;101187.06;;;26.36;30.33
64753;BME280;61095;52.454;16.948;2022-08-11T14:37:58;101175.09;;;26.38;30.40
64753;BME280;61095;52.454;16.948;2022-08-11T14:42:58;101164.91;;;26.51;29.83
64753;BME280;61095;52.454;16.948;2022-08-11T14:48:16;101195.38;;;26.44;29.16
64753;BME280;61095;52.454;16.948;2022-08-11T14:53:15;101194.63;;;26.42;29.57
64753;BME280;61095;52.454;16.948;2022-08-11T14:58:17;101194.63;;;26.42;29.42
64753;BME280;61095;52.454;16.948;2022-08-11T15:03:18;101186.25;;;26.24;29.65
64753;BME280;61095;52.454;16.948;2022-08-11T15:08:18;101179.81;;;26.04;29.39
64753;BME280;61095;52.454;16.948;2022-08-11T15:13:37;101177.44;;;26.11;29.62
64753;BME280;61095;52.454;16.948;2022-08-11T15:18:38;101170.31;;;26.10;29.78
64753;BME280;61095;52.454;16.948;2022-08-11T15:23:38;101175.41;;;26.03;29.62
64753;BME280;61095;52.454;16.948;2022-08-11T15:28:54;101172.81;;;26.02;29.89
64753;BME280;61095;52.454;16.948;2022-08-11T15:34:15;101165.31;;;26.05;30.05
64753;BME280;61095;52.454;16.948;2022-08-11T15:39:35;101166.50;;;26.12;30.17
64753;BME280;61095;52.454;16.948;2022-08-11T15:44:58;101175.88;;;26.08;30.05
64753;BME280;61095;52.454;16.948;2022-08-11T15:50:17;101160.09;;;25.93;29.82
64753;BME280;61095;52.454;16.948;2022-08-11T15:55:18;101173.50;;;25.83;30.13
64753;BME280;61095;52.454;16.948;2022-08-11T16:00:20;101163.28;;;25.86;29.80
64753;BME280;61095;52.454;16.948;2022-08-11T16:05:38;101171.19;;;25.67;29.78
64753;BME280;61095;52.454;16.948;2022-08-11T16:10:40;101164.22;;;25.65;30.27
64753;BME280;61095;52.454;16.948;2022-08-11T16:15:44;101160.78;;;25.63;30.13
64753;BME280;61095;52.454;16.948;2022-08-11T16:21:04;101163.22;;;25.66;30.60
64753;BME280;61095;52.454;16.948;2022-08-11T16:26:05;101159.53;;;25.67;30.61
64753;BME280;61095;52.454;16.948;2022-08-11T16:31:07;101168.97;;;25.72;30.78
64753;BME280;61095;52.454;16.948;2022-08-11T16:36:09;101166.56;;;25.58;30.70
64753;BME280;61095;52.454;16.948;2022-08-11T16:41:35;101174.72;;;25.47;30.90
64753;BME280;61095;52.454;16.948;2022-08-11T16:46:53;101166.00;;;25.43;31.19
64753;BME280;61095;52.454;16.948;2022-08-11T16:51:58;101175.22;;;25.41;31.42
64753;BME280;61095;52.454;16.948;2022-08-11T16:57:03;101173.16;;;25.33;31.38
64753;BME280;61095;52.454;16.948;2022-08-11T17:02:18;101166.72;;;25.23;31.93
64753;BME280;61095;52.454;16.948;2022-08-11T17:07:40;101164.78;;;25.14;31.82
64753;BME280;61095;52.454;16.948;2022-08-11T17:13:01;101170.31;;;25.12;32.37
64753;BME280;61095;52.454;16.948;2022-08-11T17:18:09;101169.34;;;25.02;32.43
64753;BME280;61095;52.454;16.948;2022-08-11T17:23:34;101164.44;;;24.96;32.60
64753;BME280;61095;52.454;16.948;2022-08-11T17:28:50;101164.94;;;24.90;32.81
64753;BME280;61095;52.454;16.948;2022-08-11T17:33:50;101160.38;;;24.90;32.86
64753;BME280;61095;52.454;16.948;2022-08-11T17:39:09;101170.81;;;24.84;32.69
64753;BME280;61095;52.454;16.948;2022-08-11T17:44:08;101165.78;;;24.79;32.97
64753;BME280;61095;52.454;16.948;2022-08-11T17:49:34;101159.38;;;24.69;33.23
64753;BME280;61095;52.454;16.948;2022-08-11T17:54:38;101167.31;;;24.59;33.14
64753;BME280;61095;52.454;16.948;2022-08-11T17:59:56;101164.38;;;24.51;33.63
64753;BME280;61095;52.454;16.948;2022-08-11T18:04:56;101164.97;;;24.44;33.67
64753;BME280;61095;52.454;16.948;2022-08-11T18:09:58;101172.81;;;24.36;34.03
64753;BME280;61095;52.454;16.948;2022-08-11T18:15:16;101176.97;;;24.40;34.16
64753;BME280;61095;52.454;16.948;2022-08-11T18:20:34;101167.97;;;24.28;34.34
64753;BME280;61095;52.454;16.948;2022-08-11T18:25:53;101166.00;;;24.19;34.14
64753;BME280;61095;52.454;16.948;2022-08-11T18:31:15;101174.28;;;24.05;34.18
64753;BME280;61095;52.454;16.948;2022-08-11T18:36:37;101177.78;;;23.94;34.51
64753;BME280;61095;52.454;16.948;2022-08-11T18:41:58;101172.50;;;23.92;34.59
64753;BME280;61095;52.454;16.948;2022-08-11T18:47:18;101175.66;;;23.86;34.69
64753;BME280;61095;52.454;16.948;2022-08-11T18:52:37;101184.19;;;23.80;34.49
64753;BME280;61095;52.454;16.948;2022-08-11T18:58:00;101188.44;;;23.71;35.01
64753;BME280;61095;52.454;16.948;2022-08-11T19:03:18;101193.66;;;23.62;35.12
64753;BME280;61095;52.454;16.948;2022-08-11T19:08:40;101197.50;;;23.47;35.25
64753;BME280;61095;52.454;16.948;2022-08-11T19:14:00;101195.56;;;23.36;35.39
64753;BME280;61095;52.454;16.948;2022-08-11T19:19:18;101196.44;;;23.24;35.44
64753;BME280;61095;52.454;16.948;2022-08-11T19:24:36;101206.91;;;23.16;35.37
64753;BME280;61095;52.454;16.948;2022-08-11T19:29:55;101209.63;;;23.03;36.38
64753;BME280;61095;52.454;16.948;2022-08-11T19:35:13;101203.38;;;22.90;36.26
64753;BME280;61095;52.454;16.948;2022-08-11T19:40:31;101201.75;;;22.87;36.30
64753;BME280;61095;52.454;16.948;2022-08-11T19:45:50;101211.66;;;22.74;36.61
64753;BME280;61095;52.454;16.948;2022-08-11T19:51:08;101216.06;;;22.62;36.78
64753;BME280;61095;52.454;16.948;2022-08-11T19:56:25;101211.31;;;22.53;36.50
64753;BME280;61095;52.454;16.948;2022-08-11T20:01:43;101218.28;;;22.43;37.00
64753;BME280;61095;52.454;16.948;2022-08-11T20:07:01;101220.41;;;22.38;37.17
64753;BME280;61095;52.454;16.948;2022-08-11T20:12:18;101236.47;;;22.00;37.81
64753;BME280;61095;52.454;16.948;2022-08-11T20:17:39;101240.47;;;21.66;38.49
64753;BME280;61095;52.454;16.948;2022-08-11T20:23:00;101243.66;;;21.58;38.76
64753;BME280;61095;52.454;16.948;2022-08-11T20:28:16;101239.44;;;21.54;38.70
64753;BME280;61095;52.454;16.948;2022-08-11T20:33:36;101235.78;;;21.55;38.87
64753;BME280;61095;52.454;16.948;2022-08-11T20:38:54;101250.84;;;21.58;39.06
64753;BME280;61095;52.454;16.948;2022-08-11T20:44:11;101255.84;;;21.49;38.72
64753;BME280;61095;52.454;16.948;2022-08-11T20:49:32;101261.59;;;21.43;39.64
64753;BME280;61095;52.454;16.948;2022-08-11T20:54:49;101254.41;;;21.30;39.71
64753;BME280;61095;52.454;16.948;2022-08-11T21:00:07;101257.88;;;21.17;40.38
64753;BME280;61095;52.454;16.948;2022-08-11T21:05:25;101254.50;;;21.28;40.95
64753;BME280;61095;52.454;16.948;2022-08-11T21:10:43;101252.66;;;21.43;40.29
64753;BME280;61095;52.454;16.948;2022-08-11T21:16:03;101259.50;;;21.34;40.72
64753;BME280;61095;52.454;16.948;2022-08-11T21:21:22;101271.59;;;21.27;41.01
64753;BME280;61095;52.454;16.948;2022-08-11T21:26:41;101266.59;;;21.21;40.84
64753;BME280;61095;52.454;16.948;2022-08-11T21:32:00;101269.00;;;21.11;41.17
64753;BME280;61095;52.454;16.948;2022-08-11T21:37:18;101264.44;;;20.98;41.14
64753;BME280;61095;52.454;16.948;2022-08-11T21:42:38;101272.56;;;20.96;41.05
64753;BME280;61095;52.454;16.948;2022-08-11T21:47:55;101269.13;;;20.94;41.28
64753;BME280;61095;52.454;16.948;2022-08-11T21:53:14;101271.44;;;20.86;41.34
64753;BME280;61095;52.454;16.948;2022-08-11T21:58:31;101256.84;;;20.76;42.11
64753;BME280;61095;52.454;16.948;2022-08-11T22:03:48;101260.31;;;20.78;42.30
64753;BME280;61095;52.454;16.948;2022-08-11T22:09:06;101255.13;;;20.60;42.66
64753;BME280;61095;52.454;16.948;2022-08-11T22:14:22;101257.50;;;20.35;43.29
64753;BME280;61095;52.454;16.948;2022-08-11T22:19:39;101257.97;;;20.12;43.85
64753;BME280;61095;52.454;16.948;2022-08-11T22:24:57;101258.06;;;19.94;43.86
64753;BME280;61095;52.454;16.948;2022-08-11T22:30:14;101249.38;;;19.75;43.90
64753;BME280;61095;52.454;16.948;2022-08-11T22:35:32;101254.19;;;19.53;44.69
64753;BME280;61095;52.454;16.948;2022-08-11T22:40:50;101253.63;;;19.30;45.58
64753;BME280;61095;52.454;16.948;2022-08-11T22:46:07;101246.44;;;19.15;45.86
64753;BME280;61095;52.454;16.948;2022-08-11T22:51:23;101248.03;;;19.02;46.54
64753;BME280;61095;52.454;16.948;2022-08-11T22:56:41;101250.09;;;18.97;46.61
64753;BME280;61095;52.454;16.948;2022-08-11T23:01:58;101248.88;;;18.87;46.19
64753;BME280;61095;52.454;16.948;2022-08-11T23:07:14;101248.41;;;18.79;46.59
64753;BME280;61095;52.454;16.948;2022-08-11T23:12:32;101249.88;;;18.67;47.03
64753;BME280;61095;52.454;16.948;2022-08-11T23:17:49;101252.84;;;18.61;47.16
64753;BME280;61095;52.454;16.948;2022-08-11T23:23:06;101262.13;;;18.54;47.22
64753;BME280;61095;52.454;16.948;2022-08-11T23:28:24;101258.22;;;18.43;47.97
64753;BME280;61095;52.454;16.948;2022-08-11T23:33:44;101265.06;;;18.32;48.92
64753;BME280;61095;52.454;16.948;2022-08-11T23:39:01;101259.16;;;18.25;48.07
64753;BME280;61095;52.454;16.948;2022-08-11T23:44:18;101262.69;;;18.26;48.05
64753;BME280;61095;52.454;16.948;2022-08-11T23:49:36;101255.78;;;18.22;48.72
64753;BME280;61095;52.454;16.948;2022-08-11T23:54:52;101257.94;;;18.14;49.14
